CheckWX is a tool to help pilots better visualize weather data.  It is not intended as a substitute for an official pre-flight weather briefing.

06:40:11 UTC

6R3 METAR
Cleveland Municipal Airport
Cleveland, Texas, USA
Current

25 mins ago

K6R3 260615Z AUTO 35013G16KT 7SM SCT120 13/01 A3014 RMK AO2 T01310010
Observed
Feb-26 @ 06:15 UTC
Wind
  • 350° at 13 KTS
  • Gusting to 16 KTS
Visibility
7 SM
Flight Rules
VFR
Cloud Levels
  • Scattered at 12,000' AGL
Temperature
13°C / 55°F
Dewpoint
C / 34°F
Humidity
44%
Altimeter
30.14" Hg
Pressure
1020.62 hPa
Previous

45 mins ago

K6R3 260555Z AUTO 34011G19KT 7SM CLR 13/02 A3014 RMK AO2 T01330019 10180 20130 402120066
Observed
Feb-26 @ 05:55 UTC
Wind
  • 340° at 11 KTS
  • Gusting to 19 KTS
Visibility
7 SM
Flight Rules
VFR
Cloud Levels
  • Clear skies
Temperature
13°C / 55°F
Dewpoint
C / 36°F
Humidity
47%
Altimeter
30.14" Hg
Pressure
1020.62 hPa
Previous

1 hour ago

K6R3 260535Z AUTO 34009KT 10SM CLR 14/03 A3011 RMK AO2 T01350030
Observed
Feb-26 @ 05:35 UTC
Wind
  • 340° at 9 KTS
Visibility
10 SM
Flight Rules
VFR
Cloud Levels
  • Clear skies
Temperature
14°C / 57°F
Dewpoint
C / 37°F
Humidity
48%
Altimeter
30.11" Hg
Pressure
1019.62 hPa